createdAt,value
2022-08-09T00:00:46.048Z,99.90
2022-08-09T00:02:51.412Z,99.90
2022-08-09T00:05:03.580Z,99.90
2022-08-09T00:07:17.846Z,99.90
2022-08-09T00:09:21.257Z,99.90
2022-08-09T00:11:27.677Z,99.90
2022-08-09T00:13:50.604Z,99.90
2022-08-09T00:15:59.251Z,99.90
2022-08-09T00:18:11.956Z,99.90
2022-08-09T00:20:15.568Z,99.90
2022-08-09T00:22:18.562Z,99.90
2022-08-09T00:24:21.573Z,99.90
2022-08-09T00:26:32.447Z,99.90
2022-08-09T00:28:36.925Z,99.90
2022-08-09T00:30:42.561Z,99.90
2022-08-09T00:32:46.042Z,99.90
2022-08-09T00:34:52.335Z,99.90
2022-08-09T00:36:56.115Z,99.90
2022-08-09T00:39:00.139Z,99.90
2022-08-09T00:41:05.273Z,99.90
2022-08-09T00:44:09.987Z,99.90
2022-08-09T00:45:34.807Z,99.90
2022-08-09T00:47:40.821Z,99.90
2022-08-09T00:49:52.481Z,99.90
2022-08-09T00:51:58.499Z,99.90
2022-08-09T00:54:08.339Z,99.90
2022-08-09T00:56:13.466Z,99.90
2022-08-09T00:58:22.256Z,99.90
2022-08-09T01:00:28.637Z,99.90
2022-08-09T01:02:32.001Z,99.90
2022-08-09T01:04:47.006Z,99.90
2022-08-09T01:06:59.000Z,99.90
2022-08-09T01:09:11.897Z,99.90
2022-08-09T01:11:23.619Z,99.90
2022-08-09T01:13:53.550Z,99.90
2022-08-09T01:16:01.010Z,99.90
2022-08-09T01:18:08.872Z,99.90
2022-08-09T01:20:29.236Z,99.90
2022-08-09T01:24:00.952Z,99.90
2022-08-09T01:25:48.967Z,99.90
2022-08-09T01:27:58.570Z,99.90
2022-08-09T01:30:06.224Z,99.90
2022-08-09T01:32:31.214Z,99.90
2022-08-09T01:34:39.099Z,99.90
2022-08-09T01:36:46.673Z,99.90
2022-08-09T01:38:52.072Z,99.90
2022-08-09T01:41:05.706Z,99.90
2022-08-09T01:43:13.417Z,99.90
2022-08-09T01:45:20.232Z,99.90
2022-08-09T01:47:26.698Z,99.90
2022-08-09T01:49:39.067Z,99.90
2022-08-09T01:51:52.966Z,99.90
2022-08-09T01:53:58.283Z,99.90
2022-08-09T01:56:03.151Z,99.90
2022-08-09T01:58:09.145Z,99.90
2022-08-09T02:00:35.279Z,99.90
2022-08-09T02:02:43.490Z,99.90
2022-08-09T02:04:48.739Z,99.90
2022-08-09T02:06:59.002Z,99.90
2022-08-09T02:09:06.890Z,99.90
2022-08-09T02:11:16.583Z,99.90
2022-08-09T02:13:22.117Z,99.90
2022-08-09T02:15:49.617Z,99.90
2022-08-09T02:18:09.751Z,99.90
2022-08-09T02:20:15.768Z,99.90
2022-08-09T02:22:36.187Z,99.90
2022-08-09T02:24:43.330Z,99.90
2022-08-09T02:26:51.578Z,99.90
2022-08-09T02:28:59.625Z,99.90
2022-08-09T02:31:08.129Z,99.90
2022-08-09T02:33:17.005Z,99.90
2022-08-09T02:35:46.374Z,99.90
2022-08-09T02:37:47.724Z,99.90
2022-08-09T02:40:01.271Z,99.90
2022-08-09T02:42:07.728Z,99.90
2022-08-09T02:44:29.123Z,99.90
2022-08-09T02:46:38.249Z,99.90
2022-08-09T02:48:46.141Z,99.90
2022-08-09T02:50:56.447Z,99.90
2022-08-09T02:53:03.643Z,99.90
2022-08-09T02:55:20.291Z,99.90
2022-08-09T02:57:26.783Z,99.90
2022-08-09T02:59:36.819Z,99.90
2022-08-09T03:02:06.279Z,99.90
2022-08-09T03:04:17.391Z,99.90
2022-08-09T03:06:27.245Z,99.90
2022-08-09T03:08:31.664Z,99.90
2022-08-09T03:10:35.444Z,99.90
2022-08-09T03:12:40.107Z,99.90
2022-08-09T03:14:46.395Z,99.90
2022-08-09T03:16:53.768Z,99.90
2022-08-09T03:18:56.951Z,99.90
2022-08-09T03:21:06.354Z,99.90
2022-08-09T03:23:15.248Z,99.90
2022-08-09T03:25:26.683Z,99.90
2022-08-09T03:27:50.262Z,99.90
2022-08-09T03:29:57.580Z,99.90
2022-08-09T03:32:08.893Z,99.90
2022-08-09T03:34:12.366Z,99.90
2022-08-09T03:36:17.566Z,99.90
2022-08-09T03:38:28.732Z,99.90
2022-08-09T03:40:32.424Z,99.90
2022-08-09T03:42:36.092Z,99.90
2022-08-09T03:44:39.467Z,99.90
2022-08-09T03:46:42.571Z,99.90
2022-08-09T03:48:51.344Z,99.90
2022-08-09T03:50:56.846Z,99.90
2022-08-09T03:53:03.384Z,99.90
2022-08-09T03:55:11.654Z,99.90
2022-08-09T03:57:20.447Z,99.90
2022-08-09T03:59:27.532Z,99.90
2022-08-09T04:01:47.026Z,99.90
2022-08-09T04:04:01.237Z,99.90
2022-08-09T04:06:07.150Z,99.90
2022-08-09T04:08:10.491Z,99.90
2022-08-09T04:10:14.155Z,99.90
2022-08-09T04:12:44.581Z,99.90
2022-08-09T04:15:00.573Z,99.90
2022-08-09T04:17:05.555Z,99.90
2022-08-09T04:19:15.810Z,99.90
2022-08-09T04:21:38.452Z,99.90
2022-08-09T04:23:54.551Z,99.90
2022-08-09T04:26:00.916Z,99.90
2022-08-09T04:28:04.495Z,99.90
2022-08-09T04:30:11.070Z,99.90
2022-08-09T04:32:15.646Z,99.90
2022-08-09T04:34:31.958Z,99.90
2022-08-09T04:36:35.235Z,99.90
2022-08-09T04:38:38.719Z,99.90
2022-08-09T04:40:41.669Z,99.90
2022-08-09T04:42:46.321Z,99.90
2022-08-09T04:44:51.740Z,99.90
2022-08-09T04:46:57.748Z,99.90
2022-08-09T04:49:02.763Z,99.90
2022-08-09T04:51:08.364Z,99.90
2022-08-09T04:53:13.767Z,99.90
2022-08-09T04:55:16.896Z,99.90
2022-08-09T04:57:23.984Z,99.90
2022-08-09T04:59:30.167Z,99.90
2022-08-09T05:01:33.407Z,99.90
2022-08-09T05:03:42.227Z,99.90
2022-08-09T05:05:52.771Z,99.90
2022-08-09T05:08:13.837Z,99.90
2022-08-09T05:10:18.034Z,99.90
2022-08-09T05:12:22.635Z,99.90
2022-08-09T05:14:26.958Z,99.90
2022-08-09T05:16:31.676Z,99.90
2022-08-09T05:18:50.778Z,99.90
2022-08-09T05:20:58.351Z,99.90
2022-08-09T05:23:55.201Z,99.90
2022-08-09T05:25:28.322Z,99.90
2022-08-09T05:27:45.418Z,99.90
2022-08-09T05:29:51.021Z,99.90
2022-08-09T05:31:57.711Z,99.90
2022-08-09T05:34:01.324Z,99.90
2022-08-09T05:36:05.577Z,99.90
2022-08-09T05:38:10.275Z,99.90
2022-08-09T05:40:27.447Z,99.90
2022-08-09T05:42:30.433Z,99.90
2022-08-09T05:44:34.997Z,99.90
2022-08-09T05:46:38.881Z,99.90
2022-08-09T05:48:42.201Z,99.90
2022-08-09T05:51:03.339Z,99.90
2022-08-09T05:53:21.397Z,99.90
2022-08-09T05:55:27.574Z,99.90
2022-08-09T05:57:55.812Z,99.90
2022-08-09T05:59:57.709Z,99.90
2022-08-09T06:02:00.698Z,99.90
2022-08-09T06:04:05.428Z,99.90
2022-08-09T06:06:08.995Z,99.90
2022-08-09T06:08:12.668Z,99.90
2022-08-09T06:10:18.079Z,99.90
2022-08-09T06:12:26.305Z,99.90
2022-08-09T06:14:29.481Z,99.90
2022-08-09T06:16:32.577Z,99.90
2022-08-09T06:18:36.475Z,99.90
2022-08-09T06:20:39.583Z,99.90
2022-08-09T06:22:42.596Z,99.90
2022-08-09T06:24:48.952Z,99.90
2022-08-09T06:26:51.982Z,99.90
2022-08-09T06:29:00.148Z,99.90
2022-08-09T06:31:07.911Z,99.90
2022-08-09T06:33:30.047Z,99.90
2022-08-09T06:35:35.676Z,99.90
2022-08-09T06:38:05.673Z,99.90
2022-08-09T06:40:17.731Z,99.90
2022-08-09T06:42:30.540Z,99.90
2022-08-09T06:44:36.538Z,99.90
2022-08-09T06:46:41.228Z,99.90
2022-08-09T06:48:44.025Z,99.90
2022-08-09T06:50:47.833Z,99.90
2022-08-09T06:52:50.628Z,99.90
2022-08-09T06:54:54.113Z,99.90
2022-08-09T06:56:57.616Z,99.90
2022-08-09T07:00:50.385Z,98.60
2022-08-09T07:01:35.524Z,95.40
2022-08-09T07:03:52.163Z,96.70
2022-08-09T07:06:03.788Z,95.70
2022-08-09T07:08:08.046Z,94.10
2022-08-09T07:10:22.280Z,95.80
2022-08-09T07:12:38.680Z,93.30
2022-08-09T07:14:44.294Z,92.80
2022-08-09T07:16:55.369Z,91.70
2022-08-09T07:19:00.876Z,90.80
2022-08-09T07:21:04.135Z,88.10
2022-08-09T07:23:18.179Z,83.30
2022-08-09T07:25:22.368Z,77.80
2022-08-09T07:27:33.925Z,74.40
2022-08-09T07:29:42.957Z,76.40
2022-08-09T07:31:48.193Z,76.60
2022-08-09T07:33:55.761Z,72.70
2022-08-09T07:35:59.037Z,71.20
2022-08-09T07:38:03.979Z,71.30
2022-08-09T07:40:08.435Z,70.40
2022-08-09T07:42:15.936Z,69.50
2022-08-09T07:44:24.161Z,71.50
2022-08-09T07:46:43.432Z,72.80
2022-08-09T07:48:46.926Z,71.80
2022-08-09T07:52:03.079Z,72.60
2022-08-09T07:53:36.456Z,69.30
2022-08-09T07:56:03.334Z,71.60
2022-08-09T07:58:13.198Z,71.40
2022-08-09T08:00:20.522Z,69.40
2022-08-09T08:02:42.281Z,70.80
2022-08-09T08:04:48.540Z,66.40
2022-08-09T08:06:56.203Z,64.70
2022-08-09T08:09:04.519Z,61.80
2022-08-09T08:12:08.815Z,59.70
2022-08-09T08:13:39.892Z,59.30
2022-08-09T08:15:54.205Z,58.10
2022-08-09T08:17:58.816Z,56.20
2022-08-09T08:20:02.197Z,55.80
2022-08-09T08:22:21.286Z,53.70
2022-08-09T08:24:40.269Z,52.70
2022-08-09T08:26:56.132Z,51.40
2022-08-09T08:28:59.613Z,51.10
2022-08-09T08:31:14.395Z,52.40
2022-08-09T08:33:22.873Z,51.20
2022-08-09T08:35:32.066Z,51.50
2022-08-09T08:37:59.846Z,49.70
2022-08-09T08:40:09.444Z,50.50
2022-08-09T08:42:14.058Z,49.80
2022-08-09T08:44:27.075Z,50.00
2022-08-09T08:46:59.679Z,48.10
2022-08-09T08:49:01.860Z,50.10
2022-08-09T08:51:06.409Z,49.60
2022-08-09T08:53:16.101Z,48.60
2022-08-09T08:55:24.883Z,47.60
2022-08-09T08:57:28.480Z,47.80
2022-08-09T08:59:47.128Z,46.70
2022-08-09T09:01:52.822Z,47.10
2022-08-09T09:03:58.808Z,47.30
2022-08-09T09:06:05.191Z,46.10
2022-08-09T09:08:30.922Z,44.80
2022-08-09T09:10:35.725Z,45.80
2022-08-09T09:12:40.337Z,47.40
2022-08-09T09:14:44.261Z,48.00
2022-08-09T09:16:47.402Z,46.10
2022-08-09T09:19:10.807Z,45.70
2022-08-09T09:21:17.073Z,45.30
2022-08-09T09:23:41.914Z,45.60
2022-08-09T09:26:11.833Z,45.20
2022-08-09T09:28:21.428Z,45.80
2022-08-09T09:30:54.061Z,46.30
2022-08-09T09:33:16.701Z,44.20
2022-08-09T09:35:20.789Z,42.70
2022-08-09T09:37:31.687Z,43.60
2022-08-09T09:39:57.043Z,42.20
2022-08-09T09:42:10.290Z,42.10
2022-08-09T09:44:25.949Z,42.30
2022-08-09T09:46:42.092Z,41.10
2022-08-09T09:48:56.329Z,42.50
2022-08-09T09:50:59.759Z,41.20
2022-08-09T09:53:03.725Z,40.50
2022-08-09T09:55:27.801Z,41.50
2022-08-09T09:58:02.951Z,41.50
2022-08-09T09:59:55.320Z,41.00
2022-08-09T10:02:00.770Z,42.60
2022-08-09T10:04:12.673Z,41.30
2022-08-09T10:06:19.525Z,39.50
2022-08-09T10:08:27.878Z,39.60
2022-08-09T10:10:34.277Z,38.10
2022-08-09T10:12:49.795Z,37.80
2022-08-09T10:15:07.367Z,38.80
2022-08-09T10:17:40.362Z,38.40
2022-08-09T10:19:45.747Z,37.80
2022-08-09T10:21:50.820Z,38.60
2022-08-09T10:23:55.320Z,38.50
2022-08-09T10:26:07.498Z,37.70
2022-08-09T10:28:13.850Z,37.20
2022-08-09T10:32:43.188Z,37.20
2022-08-09T10:34:47.336Z,38.50
2022-08-09T10:36:50.346Z,37.40
2022-08-09T10:38:56.103Z,37.10
2022-08-09T10:41:03.543Z,37.10
2022-08-09T10:43:08.066Z,36.40
2022-08-09T10:45:16.629Z,35.60
2022-08-09T10:48:20.405Z,36.40
2022-08-09T10:50:15.203Z,37.00
2022-08-09T10:52:47.157Z,37.00
2022-08-09T10:54:50.661Z,37.20
2022-08-09T10:57:10.914Z,37.60
2022-08-09T10:59:31.016Z,35.90
2022-08-09T11:03:13.616Z,36.00
2022-08-09T11:04:30.076Z,34.20
2022-08-09T11:06:37.274Z,33.90
2022-08-09T11:08:47.575Z,36.10
2022-08-09T11:10:56.420Z,36.90
2022-08-09T11:13:49.337Z,39.00
2022-08-09T11:15:50.996Z,38.90
2022-08-09T11:18:04.020Z,39.20
2022-08-09T11:20:12.497Z,39.70
2022-08-09T11:22:43.371Z,38.80
2022-08-09T11:25:04.529Z,37.60
2022-08-09T11:28:04.976Z,38.70
2022-08-09T11:30:06.439Z,39.80
2022-08-09T11:32:42.051Z,39.90
2022-08-09T11:34:51.617Z,39.50
2022-08-09T11:36:56.702Z,41.50
2022-08-09T11:39:02.748Z,41.80
2022-08-09T11:41:26.981Z,41.60
2022-08-09T11:43:43.257Z,42.70
2022-08-09T11:45:58.074Z,43.30
2022-08-09T11:48:08.135Z,40.40
2022-08-09T11:50:55.070Z,39.20
2022-08-09T11:53:28.243Z,39.30
2022-08-09T11:55:51.554Z,40.10
2022-08-09T11:58:02.717Z,40.10
2022-08-09T12:00:13.169Z,39.10
2022-08-09T12:02:37.185Z,39.80
2022-08-09T12:04:43.419Z,40.70
2022-08-09T12:06:55.747Z,42.30
2022-08-09T12:09:01.096Z,42.90
2022-08-09T12:11:04.728Z,44.20
2022-08-09T12:14:08.565Z,41.90
2022-08-09T12:15:59.666Z,42.20
2022-08-09T12:18:05.582Z,39.70
2022-08-09T12:20:19.862Z,39.30
2022-08-09T12:22:29.904Z,41.80
2022-08-09T12:24:33.023Z,41.20
2022-08-09T12:26:42.083Z,39.00
2022-08-09T12:29:00.061Z,39.00
2022-08-09T12:31:31.168Z,37.00
2022-08-09T12:33:58.381Z,37.40
2022-08-09T12:36:27.575Z,36.60
2022-08-09T12:38:38.048Z,37.80
2022-08-09T12:40:45.212Z,38.70
2022-08-09T12:42:50.342Z,36.90
2022-08-09T12:44:54.796Z,37.70
2022-08-09T12:46:58.056Z,38.60
2022-08-09T12:49:04.564Z,39.60
2022-08-09T12:51:07.918Z,40.70
2022-08-09T12:53:34.957Z,40.50
2022-08-09T12:56:14.165Z,41.20
2022-08-09T12:58:11.882Z,41.60
2022-08-09T13:00:30.726Z,40.80
2022-08-09T13:02:53.418Z,39.20
2022-08-09T13:05:02.981Z,40.00
2022-08-09T13:07:14.051Z,41.70
2022-08-09T13:09:24.689Z,39.30
2022-08-09T13:11:31.738Z,38.10
2022-08-09T13:14:01.032Z,39.10
2022-08-09T13:16:02.517Z,37.70
2022-08-09T13:18:09.546Z,37.10
2022-08-09T13:20:23.364Z,37.80
2022-08-09T13:22:36.658Z,39.30
2022-08-09T13:25:03.666Z,37.70
2022-08-09T13:27:25.649Z,38.80
2022-08-09T13:30:02.716Z,41.20
2022-08-09T13:32:15.711Z,40.60
2022-08-09T13:34:19.661Z,41.30
2022-08-09T13:36:40.848Z,41.70
2022-08-09T13:38:55.563Z,42.60
2022-08-09T13:41:52.158Z,43.20
2022-08-09T13:43:35.676Z,42.80
2022-08-09T13:46:44.480Z,44.10
2022-08-09T13:48:05.087Z,41.30
2022-08-09T13:50:29.862Z,41.70
2022-08-09T13:52:36.855Z,41.30
2022-08-09T13:54:41.656Z,40.10
2022-08-09T13:56:47.006Z,39.20
2022-08-09T13:58:50.290Z,38.90
2022-08-09T14:00:53.238Z,38.90
2022-08-09T14:03:04.113Z,37.60
2022-08-09T14:05:59.170Z,37.40
2022-08-09T14:07:47.314Z,37.10
2022-08-09T14:09:51.348Z,36.50
2022-08-09T14:11:58.048Z,36.50
2022-08-09T14:14:22.604Z,35.70
2022-08-09T14:16:28.717Z,34.30
2022-08-09T14:18:32.327Z,35.20
2022-08-09T14:20:35.857Z,34.80
2022-08-09T14:22:38.876Z,35.40
2022-08-09T14:24:53.391Z,35.60
2022-08-09T14:26:57.265Z,36.70
2022-08-09T14:29:03.444Z,38.00
2022-08-09T14:31:10.638Z,38.10
2022-08-09T14:33:13.663Z,37.70
2022-08-09T14:35:24.068Z,38.70
2022-08-09T14:38:02.342Z,40.00
2022-08-09T14:40:09.124Z,41.20
2022-08-09T14:42:13.470Z,41.20
2022-08-09T14:44:48.344Z,41.30
2022-08-09T14:47:26.198Z,41.80
2022-08-09T14:49:26.723Z,40.80
2022-08-09T14:51:30.137Z,40.40
2022-08-09T14:53:33.338Z,39.60
2022-08-09T14:55:47.853Z,39.00
2022-08-09T14:57:53.001Z,39.70
2022-08-09T14:59:57.293Z,40.80
2022-08-09T15:02:01.376Z,39.50
2022-08-09T15:04:05.894Z,39.30
2022-08-09T15:06:12.875Z,38.20
2022-08-09T15:08:18.969Z,37.30
2022-08-09T15:10:25.072Z,35.60
2022-08-09T15:12:31.421Z,36.20
2022-08-09T15:14:34.619Z,36.50
2022-08-09T15:16:41.348Z,37.20
2022-08-09T15:18:49.056Z,36.70
2022-08-09T15:21:57.108Z,37.60
2022-08-09T15:24:05.782Z,38.10
2022-08-09T15:25:40.847Z,38.40
2022-08-09T15:27:47.709Z,38.60
2022-08-09T15:30:55.476Z,38.30
2022-08-09T15:32:29.101Z,38.40
2022-08-09T15:34:42.093Z,37.80
2022-08-09T15:36:48.082Z,38.00
2022-08-09T15:38:51.491Z,38.80
2022-08-09T15:40:54.551Z,39.70
2022-08-09T15:43:00.302Z,39.90
2022-08-09T15:45:06.826Z,39.80
2022-08-09T15:47:14.531Z,39.30
2022-08-09T15:49:25.455Z,40.00
2022-08-09T15:52:03.982Z,40.90
2022-08-09T15:54:05.690Z,41.80
2022-08-09T15:56:30.949Z,42.80
2022-08-09T15:58:36.879Z,42.70
2022-08-09T16:00:42.664Z,43.40
2022-08-09T16:02:53.937Z,43.70
2022-08-09T16:04:57.536Z,44.40
2022-08-09T16:07:01.848Z,45.20
2022-08-09T16:09:06.137Z,45.40
2022-08-09T16:11:09.206Z,46.40
2022-08-09T16:13:18.717Z,47.80
2022-08-09T16:16:10.121Z,47.20
2022-08-09T16:18:00.784Z,47.80
2022-08-09T16:20:09.015Z,48.00
2022-08-09T16:22:15.599Z,48.10
2022-08-09T16:24:30.367Z,48.50
2022-08-09T16:26:37.626Z,49.20
2022-08-09T16:28:40.578Z,50.60
2022-08-09T16:30:54.231Z,51.00
2022-08-09T16:33:02.137Z,50.60
2022-08-09T16:35:06.217Z,50.40
2022-08-09T16:37:14.241Z,51.10
2022-08-09T16:39:17.945Z,52.50
2022-08-09T16:41:25.049Z,52.00
2022-08-09T16:43:43.904Z,51.50
2022-08-09T16:45:53.829Z,52.50
2022-08-09T16:48:43.283Z,53.70
2022-08-09T16:50:31.671Z,53.30
2022-08-09T16:52:36.880Z,52.50
2022-08-09T16:54:42.035Z,52.50
2022-08-09T16:56:49.476Z,52.70
2022-08-09T16:58:53.277Z,53.50
2022-08-09T17:00:58.941Z,54.70
2022-08-09T17:03:02.019Z,55.00
2022-08-09T17:05:08.232Z,56.50
2022-08-09T17:08:46.351Z,57.70
2022-08-09T17:09:45.686Z,57.70
2022-08-09T17:11:52.414Z,56.80
2022-08-09T17:14:01.022Z,57.50
2022-08-09T17:16:07.702Z,57.80
2022-08-09T17:18:10.844Z,55.80
2022-08-09T17:20:33.190Z,55.60
2022-08-09T17:22:50.143Z,56.30
2022-08-09T17:24:55.778Z,58.60
2022-08-09T17:27:06.819Z,59.30
2022-08-09T17:29:20.480Z,57.70
2022-08-09T17:31:26.737Z,58.60
2022-08-09T17:33:37.588Z,59.20
2022-08-09T17:35:43.751Z,59.20
2022-08-09T17:38:13.070Z,59.90
2022-08-09T17:40:17.913Z,60.10
2022-08-09T17:42:40.982Z,61.40
2022-08-09T17:44:49.009Z,62.30
2022-08-09T17:46:55.637Z,64.00
2022-08-09T17:49:00.713Z,62.70
2022-08-09T17:51:09.659Z,64.30
2022-08-09T17:53:22.422Z,65.40
2022-08-09T17:55:34.435Z,65.90
2022-08-09T17:58:03.183Z,66.90
2022-08-09T18:00:09.128Z,67.50
2022-08-09T18:02:18.794Z,67.90
2022-08-09T18:04:24.585Z,68.10
2022-08-09T18:06:32.080Z,69.10
2022-08-09T18:08:35.941Z,68.80
2022-08-09T18:10:42.597Z,70.00
2022-08-09T18:13:43.725Z,69.40
2022-08-09T18:15:12.221Z,69.70
2022-08-09T18:17:19.069Z,65.60
2022-08-09T18:20:55.556Z,64.00
2022-08-09T18:21:53.790Z,64.50
2022-08-09T18:24:10.035Z,64.20
2022-08-09T18:26:16.177Z,64.70
2022-08-09T18:30:36.115Z,65.60
2022-08-09T18:30:49.261Z,66.30
2022-08-09T18:32:55.447Z,67.30
2022-08-09T18:34:58.440Z,67.90
2022-08-09T18:37:02.452Z,68.80
2022-08-09T18:39:06.889Z,69.40
2022-08-09T18:41:19.064Z,70.90
2022-08-09T18:43:35.140Z,72.60
2022-08-09T18:46:46.670Z,73.40
2022-08-09T18:48:05.344Z,73.90
2022-08-09T18:50:10.056Z,73.60
2022-08-09T18:52:24.604Z,73.90
2022-08-09T18:54:38.257Z,74.40
2022-08-09T18:56:41.297Z,74.10
2022-08-09T18:58:44.540Z,73.40
2022-08-09T19:00:48.286Z,73.40
2022-08-09T19:02:54.255Z,73.70
2022-08-09T19:05:04.279Z,74.80
2022-08-09T19:07:23.454Z,76.40
2022-08-09T19:10:13.015Z,82.50
2022-08-09T19:11:52.665Z,85.10
2022-08-09T19:13:57.073Z,87.90
2022-08-09T19:16:06.613Z,89.40
2022-08-09T19:18:17.184Z,91.40
2022-08-09T19:20:39.265Z,92.80
2022-08-09T19:22:42.374Z,95.00
2022-08-09T19:25:11.482Z,97.10
2022-08-09T19:27:20.268Z,98.40
2022-08-09T19:29:24.582Z,99.20
2022-08-09T19:31:27.870Z,99.90
2022-08-09T19:33:33.622Z,99.90
2022-08-09T19:35:56.788Z,99.90
2022-08-09T19:38:01.610Z,99.90
2022-08-09T19:40:06.281Z,99.90
2022-08-09T19:42:09.499Z,99.90
2022-08-09T19:44:18.495Z,99.90
2022-08-09T19:46:34.119Z,99.90
2022-08-09T19:49:00.452Z,99.90
2022-08-09T19:51:05.037Z,99.90
2022-08-09T19:53:08.013Z,99.90
2022-08-09T19:55:14.894Z,99.90
2022-08-09T19:57:18.650Z,99.90
2022-08-09T19:59:58.413Z,99.90
2022-08-09T20:01:53.126Z,99.90
2022-08-09T20:04:19.801Z,99.90
2022-08-09T20:06:33.996Z,99.90
2022-08-09T20:08:37.022Z,99.90
2022-08-09T20:10:42.406Z,99.90
2022-08-09T20:12:47.520Z,99.90
2022-08-09T20:14:53.222Z,99.90
2022-08-09T20:16:57.116Z,99.90
2022-08-09T20:19:42.248Z,99.90
2022-08-09T20:21:28.205Z,99.90
2022-08-09T20:23:48.642Z,99.90
2022-08-09T20:25:55.347Z,99.90
2022-08-09T20:27:58.417Z,99.90
2022-08-09T20:30:03.985Z,99.90
2022-08-09T20:32:31.022Z,99.90
2022-08-09T20:34:31.966Z,99.90
2022-08-09T20:36:34.937Z,99.90
2022-08-09T20:39:18.689Z,99.90
2022-08-09T20:41:04.801Z,99.90
2022-08-09T20:43:19.192Z,99.90
2022-08-09T20:46:00.900Z,99.90
2022-08-09T20:47:51.221Z,99.90
2022-08-09T20:49:54.177Z,99.90
2022-08-09T20:51:57.952Z,99.90
2022-08-09T20:54:03.837Z,99.90
2022-08-09T20:56:19.905Z,99.90
2022-08-09T20:58:23.816Z,99.90
2022-08-09T21:00:32.070Z,99.90
2022-08-09T21:02:36.461Z,99.90
2022-08-09T21:05:52.069Z,99.90
2022-08-09T21:07:12.149Z,99.90
2022-08-09T21:09:24.991Z,99.90
2022-08-09T21:14:05.244Z,99.90
2022-08-09T21:16:19.133Z,99.90
2022-08-09T21:18:27.460Z,99.90
2022-08-09T21:20:30.870Z,99.90
2022-08-09T21:22:38.459Z,99.90
2022-08-09T21:24:42.198Z,99.90
2022-08-09T21:26:47.741Z,99.90
2022-08-09T21:28:56.853Z,99.90
2022-08-09T21:31:00.235Z,99.90
2022-08-09T21:33:03.304Z,99.90
2022-08-09T21:35:09.207Z,99.90
2022-08-09T21:37:18.436Z,99.90
2022-08-09T21:39:21.758Z,99.90
2022-08-09T21:42:06.018Z,99.90
2022-08-09T21:43:56.474Z,99.90
2022-08-09T21:46:04.403Z,99.90
2022-08-09T21:48:08.562Z,99.90
2022-08-09T21:50:17.622Z,99.90
2022-08-09T21:52:26.318Z,99.90
2022-08-09T21:54:29.300Z,99.90
2022-08-09T21:56:43.224Z,99.90
2022-08-09T21:58:58.230Z,99.90
2022-08-09T22:01:01.409Z,99.90
2022-08-09T22:03:07.163Z,99.90
2022-08-09T22:05:22.991Z,99.90
2022-08-09T22:07:39.797Z,99.90
2022-08-09T22:09:49.658Z,99.90
2022-08-09T22:12:17.818Z,99.90
2022-08-09T22:14:18.287Z,99.90
2022-08-09T22:16:22.021Z,99.90
2022-08-09T22:18:30.840Z,99.90
2022-08-09T22:20:35.874Z,99.90
2022-08-09T22:22:38.911Z,99.90
2022-08-09T22:24:53.528Z,99.90
2022-08-09T22:27:05.959Z,99.90
2022-08-09T22:29:10.110Z,99.90
2022-08-09T22:31:15.770Z,99.90
2022-08-09T22:33:18.753Z,99.90
2022-08-09T22:36:01.109Z,99.90
2022-08-09T22:37:47.831Z,99.90
2022-08-09T22:40:08.109Z,99.90
2022-08-09T22:42:21.943Z,99.90
2022-08-09T22:44:29.850Z,99.90
2022-08-09T22:48:10.309Z,99.90
2022-08-09T22:49:05.478Z,99.90
2022-08-09T22:51:17.824Z,99.90
2022-08-09T22:53:26.506Z,99.90
2022-08-09T22:56:29.610Z,99.90
2022-08-09T22:58:10.115Z,99.90
2022-08-09T23:00:23.683Z,99.90
2022-08-09T23:02:35.020Z,99.90
2022-08-09T23:04:42.127Z,99.90
2022-08-09T23:06:45.307Z,99.90
2022-08-09T23:08:48.599Z,99.90
2022-08-09T23:10:51.646Z,99.90
2022-08-09T23:12:54.891Z,99.90
2022-08-09T23:14:58.477Z,99.90
2022-08-09T23:17:01.632Z,99.90
2022-08-09T23:19:07.240Z,99.90
2022-08-09T23:21:11.434Z,99.90
2022-08-09T23:23:14.727Z,99.90
2022-08-09T23:25:17.788Z,99.90
2022-08-09T23:27:20.786Z,99.90
2022-08-09T23:29:23.815Z,99.90
2022-08-09T23:31:34.802Z,99.90
2022-08-09T23:33:37.863Z,99.90
2022-08-09T23:36:05.925Z,99.90
2022-08-09T23:38:06.413Z,99.90
2022-08-09T23:40:10.827Z,99.90
2022-08-09T23:42:13.914Z,99.90
2022-08-09T23:44:16.948Z,99.90
2022-08-09T23:46:19.960Z,99.90
2022-08-09T23:48:22.967Z,99.90
2022-08-09T23:50:25.987Z,99.90
2022-08-09T23:52:31.610Z,99.90
2022-08-09T23:54:43.419Z,99.90
2022-08-09T23:56:54.731Z,99.90
2022-08-09T23:58:59.180Z,99.90
